createdAt,value
2018-02-09T00:00:57.781Z,-3.70
2018-02-09T00:03:25.581Z,-3.70
2018-02-09T00:05:53.128Z,-3.80
2018-02-09T00:08:20.668Z,-3.80
2018-02-09T00:10:48.185Z,-3.80
2018-02-09T00:13:15.728Z,-3.80
2018-02-09T00:15:43.321Z,-3.80
2018-02-09T00:18:12.149Z,-3.70
2018-02-09T00:20:40.100Z,-3.70
2018-02-09T00:23:08.862Z,-3.80
2018-02-09T00:25:37.660Z,-3.70
2018-02-09T00:28:06.255Z,-3.70
2018-02-09T00:30:34.966Z,-3.70
2018-02-09T00:33:04.744Z,-3.70
2018-02-09T00:35:33.124Z,-3.80
2018-02-09T00:38:03.285Z,-3.90
2018-02-09T00:40:32.713Z,-3.90
2018-02-09T00:43:01.245Z,-4.00
2018-02-09T00:45:29.337Z,-4.00
2018-02-09T00:47:57.409Z,-4.00
2018-02-09T00:50:24.966Z,-4.00
2018-02-09T00:52:52.552Z,-3.90
2018-02-09T00:55:20.097Z,-3.90
2018-02-09T00:57:47.656Z,-3.90
2018-02-09T01:00:15.857Z,-3.90
2018-02-09T01:02:43.427Z,-3.90
2018-02-09T01:05:11.352Z,-4.00
2018-02-09T01:07:40.061Z,-4.00
2018-02-09T01:10:09.868Z,-4.00
2018-02-09T01:12:38.684Z,-4.00
2018-02-09T01:15:07.124Z,-4.10
2018-02-09T01:17:36.090Z,-4.10
2018-02-09T01:20:04.597Z,-4.20
2018-02-09T01:22:33.198Z,-4.20
2018-02-09T01:25:01.460Z,-4.30
2018-02-09T01:27:29.448Z,-4.30
2018-02-09T01:29:58.014Z,-4.50
2018-02-09T01:32:25.982Z,-4.50
2018-02-09T01:34:53.556Z,-4.50
2018-02-09T01:37:21.090Z,-4.40
2018-02-09T01:39:48.604Z,-4.20
2018-02-09T01:42:16.155Z,-4.10
2018-02-09T01:44:43.964Z,-4.10
2018-02-09T01:47:11.900Z,-4.10
2018-02-09T01:49:40.153Z,-4.00
2018-02-09T01:52:08.309Z,-3.90
2018-02-09T01:54:38.129Z,-3.90
2018-02-09T01:57:08.523Z,-3.90
2018-02-09T01:59:38.134Z,-4.00
2018-02-09T02:02:07.249Z,-4.00
2018-02-09T02:04:38.622Z,-4.10
2018-02-09T02:07:08.663Z,-4.10
2018-02-09T02:09:36.821Z,-4.20
2018-02-09T02:12:06.074Z,-4.10
2018-02-09T02:14:35.296Z,-4.10
2018-02-09T02:17:04.677Z,-4.10
2018-02-09T02:19:33.790Z,-4.00
2018-02-09T02:22:02.580Z,-4.00
2018-02-09T02:24:30.482Z,-3.90
2018-02-09T02:26:59.532Z,-3.90
2018-02-09T02:29:27.526Z,-4.00
2018-02-09T02:31:55.189Z,-4.00
2018-02-09T02:34:24.086Z,-4.10
2018-02-09T02:36:51.604Z,-4.10
2018-02-09T02:39:19.131Z,-4.00
2018-02-09T02:41:47.772Z,-4.00
2018-02-09T02:44:15.429Z,-4.10
2018-02-09T02:46:43.368Z,-4.10
2018-02-09T02:49:12.084Z,-4.20
2018-02-09T02:51:40.277Z,-4.20
2018-02-09T02:54:09.718Z,-4.20
2018-02-09T02:56:39.644Z,-4.20
2018-02-09T02:59:07.455Z,-4.20
2018-02-09T03:01:35.626Z,-4.20
2018-02-09T03:04:05.084Z,-4.30
2018-02-09T03:06:33.761Z,-4.20
2018-02-09T03:09:02.930Z,-4.20
2018-02-09T03:11:35.711Z,-4.10
2018-02-09T03:14:10.489Z,-3.90
2018-02-09T03:16:41.404Z,-3.90
2018-02-09T03:19:12.181Z,-4.00
2018-02-09T03:21:42.562Z,-4.10
2018-02-09T03:24:13.955Z,-4.00
2018-02-09T03:26:44.319Z,-4.00
2018-02-09T03:29:13.022Z,-4.00
2018-02-09T03:31:42.530Z,-3.90
2018-02-09T03:34:13.042Z,-3.90
2018-02-09T03:36:42.346Z,-3.90
2018-02-09T03:39:13.344Z,-3.80
2018-02-09T03:41:43.074Z,-3.80
2018-02-09T03:44:11.968Z,-3.70
2018-02-09T03:46:43.172Z,-3.70
2018-02-09T03:49:13.395Z,-3.80
2018-02-09T03:51:44.082Z,-3.80
2018-02-09T03:54:13.970Z,-3.80
2018-02-09T03:56:43.154Z,-3.80
2018-02-09T03:59:13.931Z,-3.90
2018-02-09T04:01:43.187Z,-3.90
2018-02-09T04:04:12.690Z,-4.00
2018-02-09T04:06:43.247Z,-4.10
2018-02-09T04:09:13.324Z,-4.20
2018-02-09T04:11:43.927Z,-4.00
2018-02-09T04:14:13.503Z,-4.00
2018-02-09T04:16:43.307Z,-3.90
2018-02-09T04:19:13.311Z,-4.00
2018-02-09T04:21:42.895Z,-4.00
2018-02-09T04:24:13.919Z,-4.10
2018-02-09T04:26:44.266Z,-4.10
2018-02-09T04:29:13.415Z,-4.20
2018-02-09T04:31:42.633Z,-4.20
2018-02-09T04:34:11.771Z,-4.20
2018-02-09T04:36:42.724Z,-4.20
2018-02-09T04:39:13.215Z,-4.20
2018-02-09T04:41:42.536Z,-4.30
2018-02-09T04:44:12.349Z,-4.20
2018-02-09T04:46:42.338Z,-4.30
2018-02-09T04:49:11.852Z,-4.30
2018-02-09T04:51:41.609Z,-4.30
2018-02-09T04:54:11.231Z,-4.30
2018-02-09T04:56:41.419Z,-4.30
2018-02-09T04:59:11.707Z,-4.20
2018-02-09T05:01:41.884Z,-4.30
2018-02-09T05:04:12.976Z,-4.30
2018-02-09T05:06:44.020Z,-4.40
2018-02-09T05:09:13.338Z,-4.30
2018-02-09T05:11:42.378Z,-4.40
2018-02-09T05:14:13.027Z,-4.30
2018-02-09T05:16:42.299Z,-4.30
2018-02-09T05:19:11.749Z,-4.30
2018-02-09T05:21:44.028Z,-4.30
2018-02-09T05:24:14.814Z,-4.30
2018-02-09T05:26:43.391Z,-4.20
2018-02-09T05:29:12.691Z,-4.20
2018-02-09T05:31:43.270Z,-4.00
2018-02-09T05:34:14.023Z,-4.00
2018-02-09T05:36:43.451Z,-4.00
2018-02-09T05:39:17.429Z,-4.00
2018-02-09T05:41:45.837Z,-4.10
2018-02-09T05:44:13.671Z,-4.10
2018-02-09T05:46:44.372Z,-4.10
2018-02-09T05:49:15.043Z,-4.00
2018-02-09T05:51:45.191Z,-3.90
2018-02-09T05:54:14.904Z,-3.60
2018-02-09T05:56:44.573Z,-3.50
2018-02-09T05:59:12.165Z,-3.60
2018-02-09T06:01:43.422Z,-3.60
2018-02-09T06:04:14.342Z,-3.60
2018-02-09T06:06:49.318Z,-3.70
2018-02-09T06:09:17.191Z,-3.80
2018-02-09T06:11:44.723Z,-3.80
2018-02-09T06:14:12.968Z,-3.90
2018-02-09T06:16:41.130Z,-4.00
2018-02-09T06:19:09.464Z,-4.00
2018-02-09T06:21:41.209Z,-4.10
2018-02-09T06:24:12.349Z,-4.10
2018-02-09T06:26:43.024Z,-4.10
2018-02-09T06:29:13.195Z,-4.20
2018-02-09T06:31:43.503Z,-4.20
2018-02-09T06:34:14.307Z,-4.20
2018-02-09T06:36:43.235Z,-4.20
2018-02-09T06:39:12.061Z,-4.30
2018-02-09T06:41:41.727Z,-4.30
2018-02-09T06:44:12.286Z,-4.30
2018-02-09T06:46:41.404Z,-4.30
2018-02-09T06:49:09.978Z,-4.30
2018-02-09T06:51:39.121Z,-4.30
2018-02-09T06:54:08.145Z,-4.20
2018-02-09T06:56:37.585Z,-4.20
2018-02-09T06:59:07.899Z,-4.20
2018-02-09T07:01:37.891Z,-4.10
2018-02-09T07:04:08.938Z,-3.90
2018-02-09T07:06:38.432Z,-3.90
2018-02-09T07:09:08.464Z,-3.80
2018-02-09T07:11:38.292Z,-3.60
2018-02-09T07:14:08.668Z,-3.60
2018-02-09T07:16:39.257Z,-3.60
2018-02-09T07:19:08.439Z,-3.70
2018-02-09T07:21:37.777Z,-3.70
2018-02-09T07:24:07.091Z,-3.70
2018-02-09T07:26:36.098Z,-3.70
2018-02-09T07:29:05.788Z,-3.70
2018-02-09T07:31:35.350Z,-3.60
2018-02-09T07:34:06.475Z,-3.60
2018-02-09T07:36:36.700Z,-3.40
2018-02-09T07:39:06.984Z,-3.10
2018-02-09T07:41:36.958Z,-3.10
2018-02-09T07:44:06.879Z,-3.00
2018-02-09T07:46:37.795Z,-2.90
2018-02-09T07:49:06.603Z,-3.00
2018-02-09T07:51:36.952Z,-3.00
2018-02-09T07:54:05.696Z,-3.00
2018-02-09T07:56:36.437Z,-2.90
2018-02-09T07:59:06.206Z,-2.90
2018-02-09T08:01:36.408Z,-2.90
2018-02-09T08:04:05.369Z,-2.90
2018-02-09T08:06:36.367Z,-2.80
2018-02-09T08:09:07.122Z,-2.90
2018-02-09T08:11:36.585Z,-2.90
2018-02-09T08:14:06.780Z,-2.80
2018-02-09T08:16:37.813Z,-2.80
2018-02-09T08:19:07.613Z,-2.70
2018-02-09T08:21:38.059Z,-2.80
2018-02-09T08:24:08.260Z,-2.70
2018-02-09T08:26:39.015Z,-2.60
2018-02-09T08:29:08.755Z,-2.30
2018-02-09T08:31:37.586Z,-2.30
2018-02-09T08:34:06.650Z,-2.20
2018-02-09T08:36:37.143Z,-2.10
2018-02-09T08:39:07.368Z,-2.00
2018-02-09T08:41:37.068Z,-1.90
2018-02-09T08:44:06.218Z,-1.70
2018-02-09T08:46:37.271Z,-1.60
2018-02-09T08:49:07.515Z,-1.50
2018-02-09T08:51:37.744Z,-1.50
2018-02-09T08:54:07.878Z,-1.60
2018-02-09T08:56:38.235Z,-1.50
2018-02-09T08:59:08.379Z,-1.30
2018-02-09T09:01:37.954Z,-1.30
2018-02-09T09:04:07.940Z,-1.20
2018-02-09T09:06:38.300Z,-1.20
2018-02-09T09:09:07.918Z,-0.90
2018-02-09T09:11:37.890Z,-0.70
2018-02-09T09:14:07.388Z,-0.40
2018-02-09T09:16:36.518Z,-0.40
2018-02-09T09:19:06.781Z,-0.30
2018-02-09T09:21:35.983Z,-0.10
2018-02-09T09:24:06.269Z,-0.10
2018-02-09T09:26:37.082Z,0.00
2018-02-09T09:29:06.650Z,0.00
2018-02-09T09:31:37.413Z,-0.10
2018-02-09T09:34:07.087Z,0.00
2018-02-09T09:36:36.497Z,0.00
2018-02-09T09:39:05.624Z,-0.10
2018-02-09T09:41:35.930Z,0.00
2018-02-09T09:44:04.301Z,0.20
2018-02-09T09:46:33.487Z,0.40
2018-02-09T09:49:02.351Z,0.50
2018-02-09T09:51:30.334Z,0.30
2018-02-09T09:53:58.035Z,0.50
2018-02-09T09:56:26.392Z,0.40
2018-02-09T09:58:54.741Z,0.40
2018-02-09T10:01:28.065Z,0.50
2018-02-09T10:03:56.897Z,0.60
2018-02-09T10:06:25.538Z,0.60
2018-02-09T10:08:53.287Z,0.80
2018-02-09T10:11:20.875Z,0.60
2018-02-09T10:13:48.908Z,0.70
2018-02-09T10:16:16.437Z,0.90
2018-02-09T10:18:43.991Z,1.00
2018-02-09T10:21:12.347Z,0.80
2018-02-09T10:23:40.398Z,0.80
2018-02-09T10:26:08.818Z,0.90
2018-02-09T10:28:38.234Z,1.20
2018-02-09T10:31:10.535Z,1.40
2018-02-09T10:33:39.677Z,1.40
2018-02-09T10:36:08.945Z,1.30
2018-02-09T10:38:38.179Z,1.20
2018-02-09T10:41:07.437Z,1.40
2018-02-09T10:43:38.196Z,1.60
2018-02-09T10:46:07.303Z,1.60
2018-02-09T10:48:37.046Z,1.50
2018-02-09T10:51:06.523Z,1.50
2018-02-09T10:53:34.594Z,1.40
2018-02-09T10:56:04.653Z,1.40
2018-02-09T10:58:34.744Z,1.80
2018-02-09T11:01:06.508Z,2.10
2018-02-09T11:03:35.384Z,2.10
2018-02-09T11:06:06.161Z,2.40
2018-02-09T11:08:35.346Z,2.50
2018-02-09T11:11:08.183Z,2.00
2018-02-09T11:13:37.862Z,2.00
2018-02-09T11:16:06.554Z,2.20
2018-02-09T11:18:35.575Z,2.20
2018-02-09T11:21:05.344Z,2.50
2018-02-09T11:23:33.732Z,2.40
2018-02-09T11:26:01.797Z,2.30
2018-02-09T11:28:30.237Z,2.30
2018-02-09T11:30:59.367Z,2.40
2018-02-09T11:33:28.562Z,2.80
2018-02-09T11:35:57.430Z,2.70
2018-02-09T11:38:26.135Z,3.30
2018-02-09T11:40:53.717Z,3.10
2018-02-09T11:43:21.351Z,3.10
2018-02-09T11:45:48.866Z,3.20
2018-02-09T11:48:16.378Z,3.40
2018-02-09T11:50:43.922Z,3.00
2018-02-09T11:53:12.339Z,2.90
2018-02-09T11:55:42.109Z,3.00
2018-02-09T11:58:10.431Z,2.90
2018-02-09T12:00:39.222Z,2.70
2018-02-09T12:03:08.327Z,2.50
2018-02-09T12:05:37.453Z,2.60
2018-02-09T12:08:05.585Z,2.60
2018-02-09T12:10:36.927Z,2.70
2018-02-09T12:13:07.988Z,2.80
2018-02-09T12:15:37.572Z,2.80
2018-02-09T12:18:07.199Z,3.30
2018-02-09T12:20:35.435Z,3.30
2018-02-09T12:23:05.026Z,3.20
2018-02-09T12:25:33.138Z,3.10
2018-02-09T12:28:00.744Z,2.90
2018-02-09T12:30:28.531Z,2.80
2018-02-09T12:32:56.802Z,3.40
2018-02-09T12:35:24.364Z,3.30
2018-02-09T12:37:51.887Z,3.50
2018-02-09T12:40:19.394Z,3.50
2018-02-09T12:42:46.932Z,3.20
2018-02-09T12:45:15.101Z,3.20
2018-02-09T12:47:43.706Z,3.20
2018-02-09T12:50:12.891Z,3.00
2018-02-09T12:52:41.843Z,2.80
2018-02-09T12:55:10.155Z,2.80
2018-02-09T12:57:39.195Z,2.80
2018-02-09T13:00:09.044Z,2.80
2018-02-09T13:02:39.799Z,3.10
2018-02-09T13:05:08.781Z,3.10
2018-02-09T13:07:39.282Z,2.90
2018-02-09T13:10:08.288Z,3.00
2018-02-09T13:12:48.806Z,3.10
2018-02-09T13:15:16.860Z,3.10
2018-02-09T13:17:45.277Z,3.00
2018-02-09T13:20:14.032Z,3.10
2018-02-09T13:22:54.424Z,3.20
2018-02-09T13:25:21.987Z,3.10
2018-02-09T13:27:50.251Z,3.30
2018-02-09T13:30:17.812Z,3.30
2018-02-09T13:32:57.083Z,3.20
2018-02-09T13:35:24.618Z,3.30
2018-02-09T13:37:52.135Z,3.40
2018-02-09T13:40:19.781Z,3.40
2018-02-09T13:42:47.319Z,3.30
2018-02-09T13:45:15.425Z,3.00
2018-02-09T13:47:43.352Z,2.70
2018-02-09T13:50:13.177Z,2.50
2018-02-09T13:52:44.166Z,2.50
2018-02-09T13:55:12.465Z,2.60
2018-02-09T13:57:41.886Z,2.60
2018-02-09T14:00:10.999Z,2.60
2018-02-09T14:02:40.059Z,2.60
2018-02-09T14:05:09.870Z,2.40
2018-02-09T14:07:38.115Z,2.40
2018-02-09T14:10:07.832Z,2.50
2018-02-09T14:12:37.887Z,2.60
2018-02-09T14:15:07.919Z,2.50
2018-02-09T14:17:37.669Z,2.50
2018-02-09T14:20:07.854Z,2.50
2018-02-09T14:22:38.350Z,2.70
2018-02-09T14:25:08.684Z,2.60
2018-02-09T14:27:39.615Z,2.60
2018-02-09T14:30:08.362Z,2.60
2018-02-09T14:32:38.132Z,2.60
2018-02-09T14:35:07.202Z,2.40
2018-02-09T14:37:36.162Z,2.40
2018-02-09T14:40:06.497Z,2.60
2018-02-09T14:42:37.874Z,2.70
2018-02-09T14:45:08.491Z,2.30
2018-02-09T14:47:38.595Z,2.30
2018-02-09T14:50:09.088Z,2.20
2018-02-09T14:52:38.866Z,2.20
2018-02-09T14:55:08.637Z,2.10
2018-02-09T14:57:38.289Z,2.20
2018-02-09T15:00:08.674Z,2.00
2018-02-09T15:02:37.428Z,2.00
2018-02-09T15:05:06.565Z,2.00
2018-02-09T15:07:36.443Z,2.00
2018-02-09T15:10:04.895Z,2.00
2018-02-09T15:12:34.805Z,2.00
2018-02-09T15:15:07.592Z,2.00
2018-02-09T15:17:39.973Z,2.00
2018-02-09T15:20:09.531Z,2.10
2018-02-09T15:22:40.748Z,1.90
2018-02-09T15:25:10.201Z,1.90
2018-02-09T15:27:40.192Z,1.90
2018-02-09T15:30:09.075Z,1.80
2018-02-09T15:32:40.014Z,1.80
2018-02-09T15:35:09.727Z,1.80
2018-02-09T15:37:39.633Z,1.90
2018-02-09T15:40:09.365Z,1.90
2018-02-09T15:42:39.526Z,2.00
2018-02-09T15:45:08.687Z,1.90
2018-02-09T15:47:40.006Z,1.70
2018-02-09T15:50:10.112Z,1.80
2018-02-09T15:52:39.512Z,1.80
2018-02-09T15:55:09.408Z,1.80
2018-02-09T15:57:38.904Z,1.70
2018-02-09T16:00:10.323Z,1.80
2018-02-09T16:02:41.292Z,1.70
2018-02-09T16:05:10.426Z,1.70
2018-02-09T16:07:41.938Z,1.60
2018-02-09T16:10:12.139Z,1.50
2018-02-09T16:12:42.061Z,1.50
2018-02-09T16:15:11.737Z,1.50
2018-02-09T16:17:41.143Z,1.40
2018-02-09T16:20:10.037Z,1.40
2018-02-09T16:22:39.859Z,1.40
2018-02-09T16:25:11.008Z,1.40
2018-02-09T16:27:40.979Z,1.30
2018-02-09T16:30:11.235Z,1.30
2018-02-09T16:35:38.335Z,1.30
2018-02-09T16:38:08.799Z,1.20
2018-02-09T16:40:39.298Z,1.30
2018-02-09T16:43:08.973Z,1.30
2018-02-09T16:45:38.242Z,1.30
2018-02-09T16:48:07.246Z,1.20
2018-02-09T16:50:39.307Z,1.20
2018-02-09T16:53:09.467Z,1.20
2018-02-09T16:55:38.136Z,1.20
2018-02-09T16:58:07.404Z,1.20
2018-02-09T17:00:39.926Z,1.10
2018-02-09T17:03:10.257Z,1.10
2018-02-09T17:05:58.683Z,1.10
2018-02-09T17:08:27.076Z,1.00
2018-02-09T17:10:54.801Z,1.10
2018-02-09T17:13:23.716Z,1.00
2018-02-09T17:15:52.281Z,1.00
2018-02-09T17:18:19.812Z,1.00
2018-02-09T17:20:47.378Z,1.10
2018-02-09T17:23:14.911Z,1.10
2018-02-09T17:25:44.062Z,1.00
2018-02-09T17:28:12.198Z,1.00
2018-02-09T17:30:42.562Z,1.10
2018-02-09T17:33:12.650Z,1.10
2018-02-09T17:35:42.096Z,1.10
2018-02-09T17:38:10.738Z,1.10
2018-02-09T17:40:40.242Z,1.10
2018-02-09T17:43:09.118Z,1.10
2018-02-09T17:45:41.745Z,1.10
2018-02-09T17:48:10.802Z,1.00
2018-02-09T17:50:40.374Z,1.00
2018-02-09T17:53:08.755Z,1.00
2018-02-09T17:55:39.090Z,1.00
2018-02-09T17:58:09.899Z,1.00
2018-02-09T18:00:39.299Z,1.00
2018-02-09T18:03:09.152Z,1.00
2018-02-09T18:05:38.043Z,0.90
2018-02-09T18:08:07.463Z,0.90
2018-02-09T18:10:35.720Z,0.90
2018-02-09T18:13:08.602Z,0.90
2018-02-09T18:15:39.156Z,0.70
2018-02-09T18:18:07.932Z,0.70
2018-02-09T18:20:38.758Z,0.70
2018-02-09T18:23:20.419Z,0.70
2018-02-09T18:28:42.034Z,0.80
2018-02-09T18:31:11.479Z,0.80
2018-02-09T18:33:39.774Z,0.80
2018-02-09T18:36:09.178Z,0.80
2018-02-09T18:38:38.254Z,0.80
2018-02-09T18:41:07.940Z,0.80
2018-02-09T18:43:38.277Z,0.70
2018-02-09T18:46:08.259Z,0.70
2018-02-09T18:48:37.130Z,0.70
2018-02-09T18:51:07.899Z,0.70
2018-02-09T18:53:37.256Z,0.80
2018-02-09T18:56:06.661Z,0.80
2018-02-09T18:58:36.551Z,0.70
2018-02-09T19:01:04.451Z,0.80
2018-02-09T19:03:32.706Z,0.80
2018-02-09T19:06:00.681Z,0.70
2018-02-09T19:08:29.476Z,0.70
2018-02-09T19:10:58.832Z,0.70
2018-02-09T19:13:26.475Z,0.70
2018-02-09T19:15:54.000Z,0.70
2018-02-09T19:18:21.556Z,0.60
2018-02-09T19:20:49.398Z,0.70
2018-02-09T19:23:17.681Z,0.70
2018-02-09T19:25:45.226Z,0.70
2018-02-09T19:28:13.533Z,0.70
2018-02-09T19:30:41.095Z,0.70
2018-02-09T19:33:09.733Z,0.80
2018-02-09T19:35:38.231Z,0.70
2018-02-09T19:38:06.082Z,0.70
2018-02-09T19:40:37.538Z,0.70
2018-02-09T19:43:05.323Z,0.70
2018-02-09T19:45:33.090Z,0.70
2018-02-09T19:48:00.690Z,0.70
2018-02-09T19:50:28.715Z,0.80
2018-02-09T19:52:57.167Z,0.70
2018-02-09T19:55:26.332Z,0.70
2018-02-09T19:57:54.191Z,0.70
2018-02-09T20:00:21.691Z,0.80
2018-02-09T20:02:49.247Z,0.70
2018-02-09T20:05:16.776Z,0.60
2018-02-09T20:07:44.311Z,0.60
2018-02-09T20:10:12.231Z,0.60
2018-02-09T20:12:40.875Z,0.60
2018-02-09T20:15:08.595Z,0.60
2018-02-09T20:17:36.764Z,0.50
2018-02-09T20:20:04.663Z,0.50
2018-02-09T20:22:36.044Z,0.50
2018-02-09T20:25:05.880Z,0.50
2018-02-09T20:27:37.714Z,0.50
2018-02-09T20:30:06.137Z,0.50
2018-02-09T20:32:34.783Z,0.50
2018-02-09T20:35:04.590Z,0.50
2018-02-09T20:37:34.903Z,0.50
2018-02-09T20:40:02.546Z,0.60
2018-02-09T20:42:31.320Z,0.50
2018-02-09T20:44:59.524Z,0.50
2018-02-09T20:47:27.061Z,0.50
2018-02-09T20:49:54.602Z,0.60
2018-02-09T20:52:22.913Z,0.60
2018-02-09T20:54:50.487Z,0.60
2018-02-09T20:57:18.024Z,0.60
2018-02-09T20:59:46.315Z,0.60
2018-02-09T21:02:14.620Z,0.50
2018-02-09T21:04:42.482Z,0.50
2018-02-09T21:07:10.897Z,0.60
2018-02-09T21:09:40.022Z,0.60
2018-02-09T21:12:08.800Z,0.60
2018-02-09T21:14:37.054Z,0.60
2018-02-09T21:17:07.567Z,0.60
2018-02-09T21:19:35.622Z,0.60
2018-02-09T21:22:05.603Z,0.70
2018-02-09T21:24:36.141Z,0.70
2018-02-09T21:27:09.843Z,0.80
2018-02-09T21:29:40.706Z,0.80
2018-02-09T21:32:09.524Z,0.80
2018-02-09T21:34:37.236Z,0.80
2018-02-09T21:37:06.208Z,0.80
2018-02-09T21:39:36.133Z,0.80
2018-02-09T21:42:06.679Z,0.80
2018-02-09T21:44:35.700Z,0.90
2018-02-09T21:47:08.373Z,0.90
2018-02-09T21:49:37.364Z,0.90
2018-02-09T21:52:06.708Z,0.90
2018-02-09T21:54:37.734Z,0.80
2018-02-09T21:57:07.595Z,0.80
2018-02-09T21:59:38.616Z,0.80
2018-02-09T22:02:08.527Z,0.80
2018-02-09T22:04:39.389Z,0.80
2018-02-09T22:07:07.946Z,0.70
2018-02-09T22:09:39.048Z,0.70
2018-02-09T22:12:08.306Z,0.70
2018-02-09T22:14:36.467Z,0.70
2018-02-09T22:17:06.174Z,0.70
2018-02-09T22:19:34.122Z,0.70
2018-02-09T22:22:05.369Z,0.70
2018-02-09T22:24:35.965Z,0.70
2018-02-09T22:27:05.196Z,0.70
2018-02-09T22:29:35.315Z,0.70
2018-02-09T22:32:06.110Z,0.70
2018-02-09T22:34:34.584Z,0.70
2018-02-09T22:37:02.476Z,0.70
2018-02-09T22:39:30.123Z,0.70
2018-02-09T22:41:57.655Z,0.70
2018-02-09T22:44:25.180Z,0.70
2018-02-09T22:46:52.721Z,0.70
2018-02-09T22:49:20.268Z,0.70
2018-02-09T22:51:47.827Z,0.70
2018-02-09T22:54:15.355Z,0.80
2018-02-09T22:56:42.906Z,0.80
2018-02-09T22:59:10.738Z,0.70
2018-02-09T23:01:39.148Z,0.80
2018-02-09T23:04:06.845Z,0.70
2018-02-09T23:06:35.312Z,0.80
2018-02-09T23:09:03.719Z,0.80
2018-02-09T23:11:34.828Z,0.80
2018-02-09T23:14:12.367Z,0.80
2018-02-09T23:16:43.094Z,0.80
2018-02-09T23:19:12.557Z,0.80
2018-02-09T23:21:41.932Z,0.80
2018-02-09T23:24:09.531Z,0.90
2018-02-09T23:26:37.130Z,0.90
2018-02-09T23:29:05.018Z,0.90
2018-02-09T23:31:32.858Z,1.00
2018-02-09T23:34:00.411Z,1.00
2018-02-09T23:36:27.981Z,1.00
2018-02-09T23:38:55.514Z,1.00
2018-02-09T23:41:23.041Z,1.00
2018-02-09T23:43:50.601Z,1.00
2018-02-09T23:46:18.126Z,1.00
2018-02-09T23:48:45.676Z,1.00
2018-02-09T23:51:13.216Z,1.10
2018-02-09T23:53:42.820Z,1.10
2018-02-09T23:56:10.440Z,1.10
2018-02-09T23:58:38.880Z,1.10
